createdAt,value
2019-03-05T00:04:57.172Z,98806.23
2019-03-05T00:10:00.964Z,98816.50
2019-03-05T00:15:04.948Z,98820.20
2019-03-05T00:20:10.819Z,98820.36
2019-03-05T00:25:16.997Z,98820.36
2019-03-05T00:30:50.866Z,98809.12
2019-03-05T00:36:41.951Z,98808.78
2019-03-05T00:42:41.201Z,98808.78
2019-03-05T00:48:20.714Z,98794.31
2019-03-05T00:54:02.692Z,98784.06
2019-03-05T00:59:30.023Z,98779.83
2019-03-05T01:05:03.644Z,98796.73
2019-03-05T01:10:07.860Z,98796.73
2019-03-05T01:15:12.360Z,98808.10
2019-03-05T01:20:16.202Z,98813.80
2019-03-05T01:25:26.524Z,98815.30
2019-03-05T01:30:57.538Z,98817.09
2019-03-05T01:36:06.350Z,98808.70
2019-03-05T01:41:10.245Z,98808.70
2019-03-05T01:46:14.071Z,98807.02
2019-03-05T01:51:17.993Z,98807.02
2019-03-05T01:56:22.007Z,98819.09
2019-03-05T02:01:25.830Z,98817.41
2019-03-05T02:06:29.648Z,98816.23
2019-03-05T02:11:33.439Z,98810.31
2019-03-05T02:16:56.473Z,98821.22
2019-03-05T02:22:00.269Z,98827.25
2019-03-05T02:27:36.337Z,98820.45
2019-03-05T02:33:27.427Z,98820.45
2019-03-05T02:39:08.306Z,98826.95
2019-03-05T02:44:33.429Z,98826.95
2019-03-05T02:50:23.359Z,98842.05
2019-03-05T02:56:17.487Z,98839.66
2019-03-05T03:01:37.663Z,98835.41
2019-03-05T03:06:41.542Z,98848.73
2019-03-05T03:11:45.338Z,98848.73
2019-03-05T03:16:49.125Z,98855.99
2019-03-05T03:21:52.913Z,98866.00
2019-03-05T03:26:56.734Z,98870.78
2019-03-05T03:32:00.633Z,98871.75
2019-03-05T03:37:04.453Z,98872.40
2019-03-05T03:42:08.245Z,98870.88
2019-03-05T03:47:12.058Z,98870.69
2019-03-05T03:52:15.867Z,98875.20
2019-03-05T03:57:19.675Z,98875.20
2019-03-05T04:02:23.523Z,98891.73
2019-03-05T04:07:27.305Z,98895.22
2019-03-05T04:12:31.263Z,98899.05
2019-03-05T04:17:35.056Z,98912.07
2019-03-05T04:22:38.859Z,98912.88
2019-03-05T04:27:42.676Z,98920.39
2019-03-05T04:32:46.473Z,98920.39
2019-03-05T04:37:50.290Z,98923.98
2019-03-05T04:42:54.098Z,98922.66
2019-03-05T04:47:57.940Z,98928.25
2019-03-05T04:53:01.738Z,98931.08
2019-03-05T04:58:05.540Z,98933.95
2019-03-05T05:03:09.341Z,98933.95
2019-03-05T05:08:13.159Z,98944.78
2019-03-05T05:13:16.966Z,98943.25
2019-03-05T05:18:20.748Z,98943.25
2019-03-05T05:23:24.545Z,98950.06
2019-03-05T05:28:28.323Z,98950.06
2019-03-05T05:33:32.113Z,98961.04
2019-03-05T05:38:35.901Z,98963.56
2019-03-05T05:43:39.775Z,98964.22
2019-03-05T05:48:43.575Z,98971.33
2019-03-05T05:53:47.345Z,98971.33
2019-03-05T05:58:51.166Z,98987.01
2019-03-05T06:03:54.950Z,98996.16
2019-03-05T06:08:58.712Z,98998.83
2019-03-05T06:14:02.490Z,98998.83
2019-03-05T06:19:06.281Z,98995.96
2019-03-05T06:24:10.085Z,99002.16
2019-03-05T06:29:13.860Z,99002.16
2019-03-05T06:34:17.640Z,99001.41
2019-03-05T06:39:21.437Z,99019.17
2019-03-05T06:44:25.270Z,99015.00
2019-03-05T06:49:29.051Z,99035.35
2019-03-05T06:54:32.815Z,99031.56
2019-03-05T06:59:36.620Z,99040.25
2019-03-05T07:04:40.460Z,99035.59
2019-03-05T07:09:59.395Z,99035.59
2019-03-05T07:15:40.416Z,99050.23
2019-03-05T07:21:13.394Z,99054.54
2019-03-05T07:26:17.173Z,99052.56
2019-03-05T07:31:21.016Z,99054.59
2019-03-05T07:36:25.515Z,99054.59
2019-03-05T07:41:29.301Z,99061.35
2019-03-05T07:46:33.106Z,99064.03
2019-03-05T07:51:36.885Z,99064.03
2019-03-05T07:56:40.676Z,99081.34
2019-03-05T08:01:44.444Z,99095.07
2019-03-05T08:06:48.219Z,99104.89
2019-03-05T08:11:52.219Z,99105.67
2019-03-05T08:16:56.339Z,99105.09
2019-03-05T08:22:00.137Z,99111.67
2019-03-05T08:27:03.930Z,99122.33
2019-03-05T08:32:07.757Z,99129.16
2019-03-05T08:37:13.468Z,99130.70
2019-03-05T08:42:17.135Z,99130.34
2019-03-05T08:47:20.917Z,99118.84
2019-03-05T08:52:24.688Z,99134.56
2019-03-05T08:57:28.473Z,99152.22
2019-03-05T09:02:32.278Z,99143.83
2019-03-05T09:07:36.051Z,99144.59
2019-03-05T09:12:39.841Z,99147.91
2019-03-05T09:17:43.775Z,99147.91
2019-03-05T09:22:47.614Z,99147.57
2019-03-05T09:27:51.395Z,99151.65
2019-03-05T09:32:55.214Z,99151.73
2019-03-05T09:37:58.983Z,99155.02
2019-03-05T09:43:02.856Z,99149.11
2019-03-05T09:48:06.641Z,99156.80
2019-03-05T09:53:10.490Z,99156.80
2019-03-05T09:58:14.254Z,99165.39
2019-03-05T10:03:18.523Z,99165.24
2019-03-05T10:08:32.103Z,99165.53
2019-03-05T10:13:28.009Z,99165.53
2019-03-05T10:18:31.790Z,99156.25
2019-03-05T10:23:35.596Z,99155.52
2019-03-05T10:28:39.368Z,99157.70
2019-03-05T10:33:43.154Z,99154.33
2019-03-05T10:38:56.908Z,99154.33
2019-03-05T10:43:52.530Z,99155.75
2019-03-05T10:48:56.371Z,99163.91
2019-03-05T10:54:02.090Z,99163.91
2019-03-05T10:59:05.754Z,99155.31
2019-03-05T11:04:09.754Z,99160.67
2019-03-05T11:09:13.647Z,99157.35
2019-03-05T11:14:17.436Z,99157.35
2019-03-05T11:19:21.429Z,99180.06
2019-03-05T11:24:25.308Z,99181.75
2019-03-05T11:29:29.081Z,99181.75
2019-03-05T11:34:32.903Z,99182.45
2019-03-05T11:39:36.667Z,99186.61
2019-03-05T11:44:40.555Z,99192.27
2019-03-05T11:49:44.508Z,99200.06
2019-03-05T11:54:48.347Z,99200.06
2019-03-05T11:59:52.110Z,99199.95
2019-03-05T12:04:55.919Z,99198.72
2019-03-05T12:09:59.815Z,99208.59
2019-03-05T12:15:04.054Z,99208.59
2019-03-05T12:20:09.905Z,99204.32
2019-03-05T12:25:15.810Z,99204.32
2019-03-05T12:30:21.365Z,99205.16
2019-03-05T12:35:25.143Z,99205.16
2019-03-05T12:40:28.943Z,99216.92
2019-03-05T12:45:32.724Z,99222.02
2019-03-05T12:50:36.673Z,99238.09
2019-03-05T12:55:40.449Z,99238.09
2019-03-05T13:00:44.247Z,99238.05
2019-03-05T13:05:48.022Z,99222.97
2019-03-05T13:10:51.888Z,99227.74
2019-03-05T13:15:56.511Z,99227.74
2019-03-05T13:21:03.711Z,99258.31
2019-03-05T13:26:07.535Z,99258.31
2019-03-05T13:31:12.298Z,99265.12
2019-03-05T13:36:16.737Z,99253.75
2019-03-05T13:41:20.783Z,99253.75
2019-03-05T13:46:25.921Z,99228.98
2019-03-05T13:51:56.179Z,99228.98
2019-03-05T13:57:36.898Z,99229.82
2019-03-05T14:03:11.254Z,99226.09
2019-03-05T14:08:41.800Z,99235.53
2019-03-05T14:13:45.670Z,99240.64
2019-03-05T14:18:49.464Z,99240.41
2019-03-05T14:23:53.274Z,99235.05
2019-03-05T14:28:57.087Z,99235.05
2019-03-05T14:34:01.010Z,99260.81
2019-03-05T14:39:09.917Z,99266.17
2019-03-05T14:44:14.013Z,99269.98
2019-03-05T14:49:17.821Z,99273.08
2019-03-05T14:54:21.865Z,99262.59
2019-03-05T14:59:25.673Z,99260.95
2019-03-05T15:04:29.533Z,99269.55
2019-03-05T15:09:33.326Z,99269.55
2019-03-05T15:14:37.200Z,99280.12
2019-03-05T15:19:41.147Z,99280.12
2019-03-05T15:24:44.991Z,99297.14
2019-03-05T15:29:48.859Z,99301.45
2019-03-05T15:34:52.781Z,99299.39
2019-03-05T15:39:56.673Z,99318.79
2019-03-05T15:45:00.615Z,99327.67
2019-03-05T15:50:04.620Z,99337.65
2019-03-05T15:55:09.501Z,99344.06
2019-03-05T16:00:23.804Z,99339.55
2019-03-05T16:05:28.084Z,99339.55
2019-03-05T16:10:31.885Z,99340.38
2019-03-05T16:15:35.775Z,99349.52
2019-03-05T16:20:39.651Z,99364.86
2019-03-05T16:25:46.288Z,99377.63
2019-03-05T16:31:11.376Z,99377.63
2019-03-05T16:36:30.590Z,99396.90
2019-03-05T16:41:57.200Z,99406.64
2019-03-05T16:47:09.000Z,99415.23
2019-03-05T16:52:27.752Z,99422.09
2019-03-05T16:57:49.528Z,99428.80
2019-03-05T17:03:12.417Z,99437.98
2019-03-05T17:08:24.972Z,99447.94
2019-03-05T17:13:28.766Z,99456.09
2019-03-05T17:18:32.621Z,99461.50
2019-03-05T17:23:36.447Z,99461.50
2019-03-05T17:28:40.239Z,99465.19
2019-03-05T17:33:44.110Z,99497.75
2019-03-05T17:38:48.050Z,99497.75
2019-03-05T17:43:51.870Z,99514.34
2019-03-05T17:48:55.706Z,99514.34
2019-03-05T17:53:59.519Z,99530.47
2019-03-05T17:59:03.506Z,99546.14
2019-03-05T18:04:07.462Z,99554.36
2019-03-05T18:09:11.405Z,99566.97
2019-03-05T18:14:15.320Z,99574.27
2019-03-05T18:19:19.151Z,99574.27
2019-03-05T18:24:23.021Z,99576.66
2019-03-05T18:29:26.820Z,99596.21
2019-03-05T18:34:30.667Z,99607.66
2019-03-05T18:39:34.485Z,99615.38
2019-03-05T18:44:38.399Z,99615.38
2019-03-05T18:49:42.379Z,99625.64
2019-03-05T18:54:46.219Z,99639.61
2019-03-05T18:59:50.013Z,99655.96
2019-03-05T19:04:53.806Z,99655.96
2019-03-05T19:09:57.590Z,99674.72
2019-03-05T19:15:01.584Z,99674.72
2019-03-05T19:20:08.531Z,99679.42
2019-03-05T19:25:17.548Z,99696.20
2019-03-05T19:30:23.538Z,99703.91
2019-03-05T19:35:27.380Z,99712.81
2019-03-05T19:40:33.008Z,99720.39
2019-03-05T19:45:36.904Z,99720.39
2019-03-05T19:50:40.787Z,99724.51
2019-03-05T19:55:44.605Z,99736.88
2019-03-05T20:01:04.809Z,99742.73
2019-03-05T20:06:08.807Z,99753.27
2019-03-05T20:11:12.724Z,99747.73
2019-03-05T20:16:18.403Z,99745.24
2019-03-05T20:21:22.214Z,99745.24
2019-03-05T20:26:26.010Z,99761.73
2019-03-05T20:31:29.819Z,99761.23
2019-03-05T20:36:33.736Z,99770.03
2019-03-05T20:41:37.554Z,99770.03
2019-03-05T20:46:41.386Z,99784.55
2019-03-05T20:51:45.305Z,99791.21
2019-03-05T20:56:49.286Z,99791.12
2019-03-05T21:01:53.147Z,99806.19
2019-03-05T21:06:56.935Z,99806.19
2019-03-05T21:12:00.726Z,99814.40
2019-03-05T21:17:04.540Z,99814.95
2019-03-05T21:22:08.317Z,99823.31
2019-03-05T21:27:12.099Z,99831.38
2019-03-05T21:32:15.965Z,99840.27
2019-03-05T21:37:19.875Z,99855.75
2019-03-05T21:42:23.693Z,99855.75
2019-03-05T21:47:27.588Z,99864.23
2019-03-05T21:52:31.417Z,99865.27
2019-03-05T21:57:35.221Z,99879.20
2019-03-05T22:02:39.012Z,99879.20
2019-03-05T22:07:42.834Z,99885.91
2019-03-05T22:12:46.626Z,99899.00
2019-03-05T22:17:50.476Z,99893.91
2019-03-05T22:22:54.299Z,99902.95
2019-03-05T22:27:58.265Z,99906.70
2019-03-05T22:33:02.046Z,99895.31
2019-03-05T22:38:06.059Z,99913.45
2019-03-05T22:43:09.878Z,99913.45
2019-03-05T22:48:13.743Z,99934.10
2019-03-05T22:53:17.559Z,99932.05
2019-03-05T22:58:21.400Z,99939.26
2019-03-05T23:03:25.419Z,99939.26
2019-03-05T23:08:29.429Z,99943.64
2019-03-05T23:13:33.509Z,99951.35
2019-03-05T23:18:37.431Z,99953.33
2019-03-05T23:23:41.220Z,99961.60
2019-03-05T23:28:45.118Z,99965.55
2019-03-05T23:33:48.894Z,99959.72
2019-03-05T23:38:52.878Z,99957.44
2019-03-05T23:43:56.720Z,99964.75
2019-03-05T23:49:01.002Z,99971.88
2019-03-05T23:54:04.804Z,99971.88
2019-03-05T23:59:08.687Z,99969.23
